Messwerte Faleolo

Temperatur

Temperatur
°C
1614715200 9.00 9.00 29
1614718800 10.00 10.00 30
1614722400 11.00 11.00 31
1614726000 12.00 12.00 32
1614729600 13.00 13.00 32
1614733200 14.00 14.00 33
1614736800 15.00 15.00 32
1614740400 16.00 16.00 33
1614744000 17.00 17.00 32
1614747600 18.00 18.00 30
1614751200 19.00 19.00 27
1614754800 20.00 20.00 25
1614758400 21.00 21.00 25
1614762000 22.00 22.00 25
1614765600 23.00 23.00 25
1614769200 0.00 0.00 24
1614772800 1.00 1.00 24
1614776400 2.00 2.00 23
1614780000 3.00 3.00 26
1614783600 4.00 4.00
1614787200 5.00 5.00
1614790800 6.00 6.00 24
1614794400 7.00 7.00
1614798000 8.00 8.00 25

Aktuellste Messwerte

Wettercharakter
Wetter: recht sonnig
Temperatur
31 °C
Feuchtigkeit
70 %
Wind
15 km/hWindrichtung: Nordost
Luftdruck
1012 hPa
Messzeit: 3. März 2021, 9.00Datenquelle: METAR

Weitere Messstationen in der Nähe

Messstation Temperatur Entfernung
Pago Pago 30 °C 149 km
Mata-Utu/Wallis-Insel 30 °C 458 km

Wind

Windrichtung Böen Mittelwind
° km/h km/h
1614715200 9.00 8.00 - 9.00 5
1614718800 10.00 9.00 - 10.00 30° 15
1614722400 11.00 10.00 - 11.00 30° 20
1614726000 12.00 11.00 - 12.00 10° 20
1614729600 13.00 12.00 - 13.00 10° 20
1614733200 14.00 13.00 - 14.00 10° 20
1614736800 15.00 14.00 - 15.00 10° 15
1614740400 16.00 15.00 - 16.00 30° 20
1614744000 17.00 16.00 - 17.00 70° 15
1614747600 18.00 17.00 - 18.00 60° 5
1614751200 19.00 18.00 - 19.00 90° 5
1614754800 20.00 19.00 - 20.00 120° 5
1614758400 21.00 20.00 - 21.00 100° 5
1614762000 22.00 21.00 - 22.00 120° 5
1614765600 23.00 22.00 - 23.00 110° 5
1614769200 0.00 23.00 - 0.00 120° 5
1614772800 1.00 0.00 - 1.00 170° 10
1614776400 2.00 1.00 - 2.00 0
1614780000 3.00 2.00 - 3.00 140° 5
1614783600 4.00 3.00 - 4.00 90° 10
1614787200 5.00 4.00 - 5.00
1614790800 6.00 5.00 - 6.00 90° 10
1614794400 7.00 6.00 - 7.00
1614798000 8.00 7.00 - 8.00 80° 10

Ihre Wetterstation

Fehlt Ihre Wetterstation auf unserem Portal?

Schreiben Sie an network@meteonews.ch

Klima

Wann ist es am wärmsten? Wann regnet es am wenigsten? Unsere Klimadaten geben Auskunft.